createdAt,value
2024-03-02T00:00:54.079Z,64.90
2024-03-02T00:03:05.927Z,64.80
2024-03-02T00:05:16.628Z,64.90
2024-03-02T00:07:20.068Z,64.90
2024-03-02T00:09:25.831Z,65.00
2024-03-02T00:11:32.009Z,65.00
2024-03-02T00:13:40.870Z,65.00
2024-03-02T00:15:53.059Z,65.00
2024-03-02T00:18:03.071Z,65.00
2024-03-02T00:20:11.877Z,65.00
2024-03-02T00:22:18.285Z,65.10
2024-03-02T00:24:37.881Z,65.20
2024-03-02T00:26:41.522Z,65.10
2024-03-02T00:28:46.477Z,65.20
2024-03-02T00:30:57.489Z,65.00
2024-03-02T00:33:01.338Z,65.10
2024-03-02T00:35:11.472Z,65.10
2024-03-02T00:37:17.364Z,65.10
2024-03-02T00:39:21.016Z,65.00
2024-03-02T00:41:37.265Z,65.10
2024-03-02T00:43:58.652Z,64.90
2024-03-02T00:46:04.521Z,64.90
2024-03-02T00:48:09.902Z,64.80
2024-03-02T00:50:26.640Z,64.80
2024-03-02T00:52:39.137Z,64.70
2024-03-02T00:54:49.593Z,64.70
2024-03-02T00:56:59.322Z,64.70
2024-03-02T00:59:12.682Z,64.50
2024-03-02T01:01:22.665Z,64.40
2024-03-02T01:03:33.986Z,64.50
2024-03-02T01:05:42.869Z,64.50
2024-03-02T01:07:48.631Z,65.20
2024-03-02T01:09:56.992Z,64.30
2024-03-02T01:12:03.942Z,64.30
2024-03-02T01:14:14.733Z,64.20
2024-03-02T01:16:20.678Z,64.10
2024-03-02T01:18:25.311Z,64.20
2024-03-02T01:20:28.988Z,64.10
2024-03-02T01:22:32.379Z,64.20
2024-03-02T01:24:42.262Z,63.90
2024-03-02T01:26:54.287Z,63.90
2024-03-02T01:29:03.704Z,63.90
2024-03-02T01:31:10.815Z,63.70
2024-03-02T01:33:19.667Z,63.70
2024-03-02T01:35:28.750Z,63.60
2024-03-02T01:37:32.320Z,63.70
2024-03-02T01:39:38.923Z,63.60
2024-03-02T01:41:46.916Z,63.70
2024-03-02T01:43:50.250Z,63.60
2024-03-02T01:45:58.903Z,63.70
2024-03-02T01:48:04.883Z,63.60
2024-03-02T01:50:13.855Z,63.70
2024-03-02T01:52:28.837Z,63.70
2024-03-02T01:54:40.772Z,63.60
2024-03-02T01:56:49.384Z,63.60
2024-03-02T01:58:57.573Z,63.60
2024-03-02T02:01:02.101Z,63.50
2024-03-02T02:03:19.140Z,63.60
2024-03-02T02:05:24.091Z,63.60
2024-03-02T02:07:28.223Z,63.60
2024-03-02T02:09:34.538Z,63.50
2024-03-02T02:11:41.087Z,63.50
2024-03-02T02:13:50.472Z,63.50
2024-03-02T02:15:56.776Z,63.50
2024-03-02T02:18:02.040Z,63.50
2024-03-02T02:20:09.146Z,63.40
2024-03-02T02:22:17.365Z,63.40
2024-03-02T02:24:21.087Z,63.40
2024-03-02T02:26:26.826Z,63.40
2024-03-02T02:28:33.055Z,63.40
2024-03-02T02:30:45.643Z,63.50
2024-03-02T02:33:00.401Z,63.40
2024-03-02T02:35:08.589Z,63.40
2024-03-02T02:37:15.701Z,63.20
2024-03-02T02:39:23.608Z,63.10
2024-03-02T02:41:30.605Z,63.20
2024-03-02T02:43:36.345Z,63.00
2024-03-02T02:45:44.913Z,63.00
2024-03-02T02:47:48.899Z,63.00
2024-03-02T02:49:54.510Z,62.90
2024-03-02T02:51:58.961Z,62.90
2024-03-02T02:54:08.317Z,62.80
2024-03-02T02:56:12.120Z,63.60
2024-03-02T02:58:17.829Z,62.70
2024-03-02T03:00:25.097Z,62.60
2024-03-02T03:02:51.858Z,62.60
2024-03-02T03:04:58.563Z,62.60
2024-03-02T03:07:04.712Z,62.60
2024-03-02T03:09:12.393Z,62.50
2024-03-02T03:11:18.473Z,62.50
2024-03-02T03:13:27.188Z,62.40
2024-03-02T03:15:36.030Z,62.40
2024-03-02T03:17:42.685Z,62.40
2024-03-02T03:19:48.376Z,62.30
2024-03-02T03:21:55.721Z,62.30
2024-03-02T03:23:59.286Z,62.20
2024-03-02T03:26:05.828Z,62.30
2024-03-02T03:28:12.774Z,62.30
2024-03-02T03:30:21.228Z,62.40
2024-03-02T03:32:46.560Z,62.30
2024-03-02T03:34:50.515Z,62.20
2024-03-02T03:36:54.205Z,62.40
2024-03-02T03:38:59.053Z,62.40
2024-03-02T03:41:09.998Z,62.30
2024-03-02T03:43:14.660Z,62.30
2024-03-02T03:45:21.409Z,62.30
2024-03-02T03:47:27.235Z,62.30
2024-03-02T03:49:31.955Z,62.40
2024-03-02T03:51:40.003Z,62.50
2024-03-02T03:53:44.435Z,62.50
2024-03-02T03:55:50.812Z,62.60
2024-03-02T03:57:59.531Z,62.50
2024-03-02T04:00:04.110Z,62.60
2024-03-02T04:02:30.138Z,62.60
2024-03-02T04:04:35.113Z,63.50
2024-03-02T04:06:41.275Z,62.60
2024-03-02T04:08:47.022Z,62.70
2024-03-02T04:10:50.746Z,62.80
2024-03-02T04:12:59.456Z,62.80
2024-03-02T04:15:09.720Z,62.90
2024-03-02T04:17:16.267Z,62.80
2024-03-02T04:19:20.878Z,62.90
2024-03-02T04:21:27.453Z,63.00
2024-03-02T04:23:33.905Z,63.00
2024-03-02T04:25:37.601Z,63.10
2024-03-02T04:27:41.170Z,63.10
2024-03-02T04:29:45.211Z,63.20
2024-03-02T04:31:53.530Z,63.20
2024-03-02T04:33:57.077Z,63.30
2024-03-02T04:36:01.947Z,63.30
2024-03-02T04:38:09.480Z,63.50
2024-03-02T04:40:15.486Z,63.50
2024-03-02T04:42:26.415Z,63.50
2024-03-02T04:44:32.500Z,63.60
2024-03-02T04:46:38.228Z,63.70
2024-03-02T04:48:42.046Z,63.80
2024-03-02T04:50:48.567Z,63.80
2024-03-02T04:52:51.977Z,63.90
2024-03-02T04:55:14.224Z,64.00
2024-03-02T04:57:18.814Z,64.00
2024-03-02T04:59:22.868Z,64.00
2024-03-02T05:01:28.530Z,64.10
2024-03-02T05:03:36.194Z,64.20
2024-03-02T05:05:39.800Z,64.20
2024-03-02T05:07:45.713Z,64.30
2024-03-02T05:09:49.691Z,64.30
2024-03-02T05:12:11.744Z,64.40
2024-03-02T05:14:20.918Z,64.40
2024-03-02T05:16:29.590Z,64.50
2024-03-02T05:18:35.303Z,64.60
2024-03-02T05:20:46.774Z,64.60
2024-03-02T05:22:52.661Z,64.80
2024-03-02T05:24:56.412Z,64.80
2024-03-02T05:27:11.272Z,64.80
2024-03-02T05:29:20.523Z,64.90
2024-03-02T05:31:26.755Z,65.00
2024-03-02T05:33:32.720Z,66.00
2024-03-02T05:35:36.379Z,65.10
2024-03-02T05:37:42.140Z,66.10
2024-03-02T05:39:51.176Z,65.30
2024-03-02T05:41:57.246Z,65.40
2024-03-02T05:44:06.649Z,65.40
2024-03-02T05:46:15.910Z,65.40
2024-03-02T05:48:24.387Z,65.60
2024-03-02T05:50:28.178Z,65.50
2024-03-02T05:52:38.630Z,65.60
2024-03-02T05:54:44.153Z,65.70
2024-03-02T05:56:50.333Z,65.70
2024-03-02T05:59:04.191Z,65.90
2024-03-02T06:01:12.601Z,65.90
2024-03-02T06:03:15.942Z,65.90
2024-03-02T06:05:20.261Z,66.00
2024-03-02T06:07:23.991Z,66.10
2024-03-02T06:09:27.941Z,66.20
2024-03-02T06:11:32.870Z,66.20
2024-03-02T06:13:41.606Z,66.20
2024-03-02T06:15:53.107Z,66.30
2024-03-02T06:18:00.628Z,66.30
2024-03-02T06:20:10.644Z,66.30
2024-03-02T06:22:20.495Z,66.40
2024-03-02T06:24:24.537Z,66.50
2024-03-02T06:26:30.380Z,66.50
2024-03-02T06:28:34.340Z,66.50
2024-03-02T06:30:40.163Z,66.70
2024-03-02T06:33:05.286Z,66.60
2024-03-02T06:35:11.450Z,66.70
2024-03-02T06:37:19.883Z,66.80
2024-03-02T06:39:27.086Z,66.70
2024-03-02T06:41:32.365Z,66.80
2024-03-02T06:43:37.894Z,66.80
2024-03-02T06:45:44.283Z,66.80
2024-03-02T06:47:50.265Z,66.90
2024-03-02T06:49:59.706Z,66.90
2024-03-02T06:52:05.903Z,66.90
2024-03-02T06:54:11.523Z,66.90
2024-03-02T06:56:17.853Z,67.00
2024-03-02T06:58:25.886Z,66.90
2024-03-02T07:00:34.195Z,66.90
2024-03-02T07:02:52.816Z,67.00
2024-03-02T07:04:56.815Z,66.90
2024-03-02T07:07:00.175Z,66.90
2024-03-02T07:09:12.233Z,67.00
2024-03-02T07:11:18.867Z,67.00
2024-03-02T07:13:30.061Z,67.00
2024-03-02T07:15:56.020Z,67.00
2024-03-02T07:18:01.890Z,66.80
2024-03-02T07:20:08.209Z,66.90
2024-03-02T07:22:14.238Z,66.80
2024-03-02T07:24:20.233Z,66.80
2024-03-02T07:28:34.712Z,66.70
2024-03-02T07:30:42.212Z,66.60
2024-03-02T07:32:59.932Z,66.60
2024-03-02T07:35:10.706Z,66.50
2024-03-02T07:37:15.170Z,66.50
2024-03-02T07:39:21.550Z,66.30
2024-03-02T07:41:25.649Z,66.30
2024-03-02T07:43:29.501Z,66.30
2024-03-02T07:45:33.612Z,66.20
2024-03-02T07:47:40.415Z,66.20
2024-03-02T07:49:47.541Z,66.10
2024-03-02T07:51:53.418Z,66.10
2024-03-02T07:53:57.018Z,66.10
2024-03-02T07:56:03.844Z,65.90
2024-03-02T07:58:12.823Z,65.80
2024-03-02T08:00:18.756Z,65.50
2024-03-02T08:02:44.832Z,65.40
2024-03-02T08:04:49.299Z,65.20
2024-03-02T08:06:59.302Z,66.00
2024-03-02T08:09:06.034Z,65.00
2024-03-02T08:11:09.935Z,64.80
2024-03-02T08:13:15.119Z,64.40
2024-03-02T08:15:23.013Z,64.30
2024-03-02T08:17:29.241Z,64.30
2024-03-02T08:19:35.013Z,64.10
2024-03-02T08:21:38.971Z,63.90
2024-03-02T08:23:45.011Z,63.50
2024-03-02T08:25:51.341Z,63.60
2024-03-02T08:27:57.796Z,63.40
2024-03-02T08:30:08.302Z,63.20
2024-03-02T08:32:31.295Z,63.20
2024-03-02T08:34:37.982Z,63.20
2024-03-02T08:36:43.860Z,63.10
2024-03-02T08:38:47.923Z,62.80
2024-03-02T08:40:56.458Z,62.70
2024-03-02T08:43:01.696Z,62.70
2024-03-02T08:45:11.235Z,62.50
2024-03-02T08:47:17.757Z,62.50
2024-03-02T08:49:21.375Z,62.30
2024-03-02T08:51:27.533Z,62.10
2024-03-02T08:53:33.256Z,61.90
2024-03-02T08:55:41.368Z,61.70
2024-03-02T08:57:47.771Z,61.60
2024-03-02T08:59:51.771Z,61.30
2024-03-02T09:02:02.284Z,61.20
2024-03-02T09:04:10.995Z,60.80
2024-03-02T09:06:21.682Z,60.50
2024-03-02T09:08:28.444Z,60.60
2024-03-02T09:10:32.329Z,60.40
2024-03-02T09:12:42.513Z,60.20
2024-03-02T09:14:47.147Z,60.20
2024-03-02T09:16:50.422Z,60.20
2024-03-02T09:18:57.287Z,59.80
2024-03-02T09:21:03.285Z,60.10
2024-03-02T09:23:07.543Z,59.70
2024-03-02T09:25:13.669Z,58.40
2024-03-02T09:27:18.277Z,57.10
2024-03-02T09:29:26.678Z,56.60
2024-03-02T09:31:30.488Z,55.30
2024-03-02T09:33:37.497Z,54.50
2024-03-02T09:35:44.350Z,53.70
2024-03-02T09:37:50.304Z,52.50
2024-03-02T09:39:54.594Z,51.90
2024-03-02T09:42:01.149Z,51.20
2024-03-02T09:44:07.634Z,50.90
2024-03-02T09:46:14.786Z,50.00
2024-03-02T09:48:19.945Z,49.90
2024-03-02T09:50:26.228Z,49.10
2024-03-02T09:52:34.695Z,48.90
2024-03-02T09:54:41.426Z,48.00
2024-03-02T09:56:47.461Z,47.80
2024-03-02T09:58:53.771Z,47.60
2024-03-02T10:00:59.596Z,47.00
2024-03-02T10:03:14.592Z,45.10
2024-03-02T10:05:30.187Z,44.90
2024-03-02T10:07:41.998Z,45.80
2024-03-02T10:09:50.270Z,46.40
2024-03-02T10:11:53.781Z,46.80
2024-03-02T10:14:10.308Z,46.90
2024-03-02T10:16:16.301Z,47.10
2024-03-02T10:18:30.647Z,47.30
2024-03-02T10:20:34.831Z,47.30
2024-03-02T10:22:38.575Z,47.70
2024-03-02T10:24:53.434Z,48.00
2024-03-02T10:27:02.272Z,48.00
2024-03-02T10:29:14.501Z,47.90
2024-03-02T10:31:28.279Z,48.10
2024-03-02T10:33:33.927Z,48.10
2024-03-02T10:35:39.105Z,48.00
2024-03-02T10:37:47.451Z,47.90
2024-03-02T10:39:54.161Z,47.60
2024-03-02T10:42:01.042Z,47.50
2024-03-02T10:44:07.006Z,47.40
2024-03-02T10:46:18.171Z,47.40
2024-03-02T10:48:22.906Z,47.40
2024-03-02T10:50:29.088Z,47.50
2024-03-02T10:52:36.756Z,47.50
2024-03-02T10:54:41.713Z,47.30
2024-03-02T10:56:48.649Z,47.30
2024-03-02T10:59:05.679Z,47.10
2024-03-02T11:01:17.950Z,46.90
2024-03-02T11:03:21.594Z,46.80
2024-03-02T11:05:29.893Z,46.50
2024-03-02T11:07:40.266Z,46.30
2024-03-02T11:09:51.229Z,46.30
2024-03-02T11:12:31.579Z,46.40
2024-03-02T11:14:39.040Z,46.50
2024-03-02T11:16:43.012Z,46.30
2024-03-02T11:18:51.135Z,46.20
2024-03-02T11:20:56.409Z,46.00
2024-03-02T11:23:14.182Z,45.70
2024-03-02T11:25:30.098Z,45.30
2024-03-02T11:27:50.250Z,45.40
2024-03-02T11:29:55.986Z,45.50
2024-03-02T11:32:02.367Z,45.60
2024-03-02T11:34:46.513Z,45.40
2024-03-02T11:36:49.874Z,45.30
2024-03-02T11:38:58.188Z,45.00
2024-03-02T11:41:10.319Z,44.90
2024-03-02T11:43:17.341Z,44.80
2024-03-02T11:45:26.380Z,44.70
2024-03-02T11:47:36.667Z,44.40
2024-03-02T11:49:50.525Z,44.00
2024-03-02T11:52:03.554Z,43.90
2024-03-02T11:54:08.447Z,44.00
2024-03-02T11:56:13.605Z,44.30
2024-03-02T11:58:22.294Z,44.30
2024-03-02T12:00:28.720Z,44.00
2024-03-02T12:02:50.657Z,43.90
2024-03-02T12:04:58.940Z,43.70
2024-03-02T12:07:03.497Z,43.50
2024-03-02T12:09:07.918Z,43.50
2024-03-02T12:11:17.191Z,43.40
2024-03-02T12:13:24.377Z,43.30
2024-03-02T12:15:34.706Z,43.30
2024-03-02T12:17:39.560Z,43.40
2024-03-02T12:19:45.829Z,44.40
2024-03-02T12:21:51.602Z,43.30
2024-03-02T12:23:55.228Z,43.40
2024-03-02T12:26:04.241Z,43.40
2024-03-02T12:28:08.060Z,43.50
2024-03-02T12:30:15.301Z,43.50
2024-03-02T12:32:37.214Z,43.60
2024-03-02T12:34:41.051Z,43.60
2024-03-02T12:36:48.717Z,44.00
2024-03-02T12:38:56.075Z,44.00
2024-03-02T12:41:01.203Z,44.00
2024-03-02T12:43:08.201Z,45.10
2024-03-02T12:45:17.642Z,44.50
2024-03-02T12:47:23.240Z,44.70
2024-03-02T12:49:28.896Z,44.80
2024-03-02T12:51:32.790Z,44.80
2024-03-02T12:53:37.275Z,44.70
2024-03-02T12:55:41.166Z,44.90
2024-03-02T12:57:49.163Z,45.10
2024-03-02T13:00:10.379Z,45.30
2024-03-02T13:02:35.295Z,45.30
2024-03-02T13:05:00.095Z,45.40
2024-03-02T13:07:04.232Z,45.40
2024-03-02T13:09:17.159Z,45.50
2024-03-02T13:11:26.672Z,45.70
2024-03-02T13:13:33.513Z,45.90
2024-03-02T13:15:42.623Z,45.70
2024-03-02T13:17:52.318Z,45.80
2024-03-02T13:20:02.383Z,45.80
2024-03-02T13:22:08.246Z,45.90
2024-03-02T13:24:16.839Z,45.90
2024-03-02T13:26:22.972Z,45.90
2024-03-02T13:28:29.276Z,45.90
2024-03-02T13:30:33.975Z,46.00
2024-03-02T13:32:51.538Z,46.20
2024-03-02T13:34:55.337Z,46.30
2024-03-02T13:36:58.976Z,46.30
2024-03-02T13:39:02.381Z,46.60
2024-03-02T13:41:10.062Z,46.70
2024-03-02T13:43:17.182Z,46.90
2024-03-02T13:45:21.905Z,47.00
2024-03-02T13:47:28.800Z,47.10
2024-03-02T13:49:44.694Z,46.90
2024-03-02T13:51:56.912Z,47.00
2024-03-02T13:54:06.370Z,46.90
2024-03-02T13:56:10.629Z,46.70
2024-03-02T13:58:18.369Z,46.70
2024-03-02T14:00:27.697Z,46.50
2024-03-02T14:02:55.331Z,46.30
2024-03-02T14:05:04.870Z,46.00
2024-03-02T14:07:13.489Z,46.10
2024-03-02T14:09:16.875Z,46.10
2024-03-02T14:11:20.794Z,46.20
2024-03-02T14:13:27.464Z,46.50
2024-03-02T14:15:32.700Z,46.80
2024-03-02T14:17:37.156Z,47.00
2024-03-02T14:19:43.057Z,46.90
2024-03-02T14:21:48.626Z,46.90
2024-03-02T14:23:57.804Z,46.80
2024-03-02T14:26:02.175Z,46.80
2024-03-02T14:30:16.101Z,46.50
2024-03-02T14:32:31.131Z,46.40
2024-03-02T14:34:40.662Z,46.30
2024-03-02T14:36:47.276Z,46.40
2024-03-02T14:38:56.784Z,46.10
2024-03-02T14:41:04.565Z,44.30
2024-03-02T14:43:08.555Z,41.50
2024-03-02T14:45:18.351Z,38.90
2024-03-02T14:47:25.666Z,37.40
2024-03-02T14:49:29.156Z,36.80
2024-03-02T14:51:32.777Z,37.70
2024-03-02T14:53:39.269Z,37.00
2024-03-02T14:55:48.162Z,36.90
2024-03-02T14:57:54.286Z,37.30
2024-03-02T14:59:58.123Z,37.80
2024-03-02T15:02:07.221Z,38.40
2024-03-02T15:04:15.912Z,38.40
2024-03-02T15:06:24.618Z,38.00
2024-03-02T15:08:31.917Z,35.50
2024-03-02T15:10:37.593Z,33.90
2024-03-02T15:12:44.409Z,33.50
2024-03-02T15:14:49.012Z,33.30
2024-03-02T15:16:55.431Z,32.60
2024-03-02T15:18:58.781Z,31.60
2024-03-02T15:21:06.235Z,30.60
2024-03-02T15:23:10.741Z,29.90
2024-03-02T15:25:16.191Z,29.60
2024-03-02T15:27:26.480Z,30.00
2024-03-02T15:29:35.910Z,31.40
2024-03-02T15:31:39.535Z,32.80
2024-03-02T15:33:45.427Z,33.90
2024-03-02T15:35:52.837Z,34.70
2024-03-02T15:37:56.496Z,36.80
2024-03-02T15:40:07.324Z,36.80
2024-03-02T15:42:15.163Z,37.60
2024-03-02T15:44:26.043Z,37.80
2024-03-02T15:46:29.706Z,37.40
2024-03-02T15:48:34.242Z,37.00
2024-03-02T15:50:43.493Z,37.40
2024-03-02T15:52:48.156Z,38.30
2024-03-02T15:54:51.725Z,39.10
2024-03-02T15:56:56.177Z,40.00
2024-03-02T15:59:03.247Z,40.80
2024-03-02T16:01:07.095Z,41.40
2024-03-02T16:03:14.254Z,42.00
2024-03-02T16:05:18.447Z,42.50
2024-03-02T16:07:25.661Z,43.00
2024-03-02T16:09:29.626Z,43.30
2024-03-02T16:11:35.327Z,43.50
2024-03-02T16:13:40.088Z,43.80
2024-03-02T16:15:43.580Z,44.10
2024-03-02T16:17:47.095Z,44.10
2024-03-02T16:19:52.692Z,44.30
2024-03-02T16:22:01.530Z,44.60
2024-03-02T16:24:10.760Z,44.70
2024-03-02T16:26:14.882Z,44.90
2024-03-02T16:28:18.903Z,45.10
2024-03-02T16:30:25.799Z,45.20
2024-03-02T16:32:46.108Z,45.50
2024-03-02T16:34:50.041Z,45.60
2024-03-02T16:36:58.443Z,45.80
2024-03-02T16:39:05.429Z,46.10
2024-03-02T16:41:12.158Z,46.30
2024-03-02T16:43:18.240Z,46.50
2024-03-02T16:45:22.037Z,46.50
2024-03-02T16:47:29.382Z,46.80
2024-03-02T16:49:35.444Z,47.00
2024-03-02T16:51:47.976Z,47.10
2024-03-02T16:53:51.746Z,47.30
2024-03-02T16:55:55.182Z,47.50
2024-03-02T16:57:58.637Z,47.60
2024-03-02T17:00:09.362Z,47.90
2024-03-02T17:02:29.703Z,48.10
2024-03-02T17:04:35.172Z,48.20
2024-03-02T17:06:43.996Z,48.50
2024-03-02T17:08:47.634Z,48.80
2024-03-02T17:10:52.021Z,49.10
2024-03-02T17:13:01.114Z,49.20
2024-03-02T17:15:08.481Z,49.40
2024-03-02T17:17:19.583Z,49.50
2024-03-02T17:19:25.301Z,49.60
2024-03-02T17:21:29.051Z,49.70
2024-03-02T17:23:34.748Z,49.90
2024-03-02T17:25:41.346Z,50.00
2024-03-02T17:27:47.256Z,50.20
2024-03-02T17:29:51.104Z,50.30
2024-03-02T17:31:57.471Z,50.30
2024-03-02T17:34:01.856Z,50.40
2024-03-02T17:36:10.577Z,50.40
2024-03-02T17:38:15.327Z,50.40
2024-03-02T17:40:19.367Z,50.60
2024-03-02T17:42:27.197Z,50.70
2024-03-02T17:44:30.980Z,50.70
2024-03-02T17:46:34.785Z,50.90
2024-03-02T17:48:38.210Z,51.00
2024-03-02T17:50:44.934Z,51.00
2024-03-02T17:52:53.132Z,51.00
2024-03-02T17:54:57.984Z,51.00
2024-03-02T17:57:04.057Z,50.90
2024-03-02T17:59:11.168Z,51.00
2024-03-02T18:01:16.722Z,51.00
2024-03-02T18:03:27.458Z,51.00
2024-03-02T18:05:31.204Z,51.10
2024-03-02T18:07:38.568Z,51.10
2024-03-02T18:09:46.094Z,50.90
2024-03-02T18:11:51.936Z,51.00
2024-03-02T18:14:01.792Z,51.00
2024-03-02T18:16:07.348Z,50.90
2024-03-02T18:18:13.526Z,51.00
2024-03-02T18:20:19.489Z,51.10
2024-03-02T18:22:23.257Z,51.10
2024-03-02T18:24:29.405Z,51.10
2024-03-02T18:26:36.674Z,51.00
2024-03-02T18:28:45.144Z,51.00
2024-03-02T18:30:48.512Z,51.00
2024-03-02T18:32:55.636Z,50.80
2024-03-02T18:35:06.260Z,50.80
2024-03-02T18:37:13.106Z,51.70
2024-03-02T18:39:19.110Z,50.80
2024-03-02T18:41:26.137Z,50.90
2024-03-02T18:43:29.424Z,50.90
2024-03-02T18:45:35.254Z,50.90
2024-03-02T18:47:40.474Z,50.80
2024-03-02T18:49:46.891Z,50.70
2024-03-02T18:51:55.335Z,50.60
2024-03-02T18:53:59.830Z,50.60
2024-03-02T18:56:05.320Z,50.60
2024-03-02T18:58:09.620Z,50.50
2024-03-02T19:00:19.045Z,50.50
2024-03-02T19:02:36.083Z,50.50
2024-03-02T19:04:42.263Z,50.60
2024-03-02T19:06:45.968Z,50.60
2024-03-02T19:08:53.214Z,50.60
2024-03-02T19:10:57.588Z,50.60
2024-03-02T19:13:03.160Z,50.70
2024-03-02T19:15:08.175Z,50.70
2024-03-02T19:17:15.192Z,50.70
2024-03-02T19:19:21.253Z,50.80
2024-03-02T19:21:25.429Z,50.90
2024-03-02T19:23:32.841Z,50.90
2024-03-02T19:25:43.783Z,50.90
2024-03-02T19:27:49.953Z,50.90
2024-03-02T19:29:55.994Z,51.00
2024-03-02T19:32:05.103Z,51.20
2024-03-02T19:34:24.188Z,51.30
2024-03-02T19:36:29.265Z,51.30
2024-03-02T19:38:42.694Z,51.40
2024-03-02T19:40:46.462Z,51.50
2024-03-02T19:42:57.474Z,51.60
2024-03-02T19:45:07.635Z,51.80
2024-03-02T19:47:19.138Z,51.80
2024-03-02T19:49:26.279Z,51.90
2024-03-02T19:51:33.359Z,52.00
2024-03-02T19:53:40.715Z,52.00
2024-03-02T19:55:50.875Z,52.10
2024-03-02T19:57:59.112Z,52.10
2024-03-02T20:00:13.052Z,52.20
2024-03-02T20:02:35.850Z,52.10
2024-03-02T20:04:40.218Z,52.10
2024-03-02T20:06:48.547Z,52.20
2024-03-02T20:08:52.464Z,52.30
2024-03-02T20:11:00.381Z,52.30
2024-03-02T20:13:07.438Z,52.40
2024-03-02T20:15:14.667Z,52.50
2024-03-02T20:17:20.963Z,52.50
2024-03-02T20:19:27.127Z,52.40
2024-03-02T20:21:32.875Z,52.50
2024-03-02T20:23:37.761Z,52.50
2024-03-02T20:25:43.962Z,52.70
2024-03-02T20:27:49.755Z,52.80
2024-03-02T20:29:53.663Z,52.90
2024-03-02T20:32:00.120Z,52.90
2024-03-02T20:34:04.165Z,52.90
2024-03-02T20:36:16.480Z,52.90
2024-03-02T20:38:25.803Z,53.00
2024-03-02T20:40:29.202Z,53.00
2024-03-02T20:42:35.812Z,53.00
2024-03-02T20:44:41.650Z,53.10
2024-03-02T20:46:49.056Z,53.10
2024-03-02T20:48:58.843Z,53.20
2024-03-02T20:51:10.269Z,53.30
2024-03-02T20:53:18.589Z,53.30
2024-03-02T20:55:33.045Z,53.40
2024-03-02T20:57:43.248Z,53.30
2024-03-02T20:59:52.595Z,53.40
2024-03-02T21:02:01.667Z,53.60
2024-03-02T21:04:15.113Z,53.70
2024-03-02T21:06:20.144Z,53.70
2024-03-02T21:08:24.509Z,53.70
2024-03-02T21:10:33.037Z,53.80
2024-03-02T21:12:36.969Z,53.80
2024-03-02T21:14:41.256Z,53.90
2024-03-02T21:16:47.255Z,54.10
2024-03-02T21:18:57.456Z,54.10
2024-03-02T21:21:01.397Z,54.30
2024-03-02T21:23:12.392Z,54.30
2024-03-02T21:25:20.843Z,54.40
2024-03-02T21:27:29.961Z,54.60
2024-03-02T21:29:40.328Z,55.10
2024-03-02T21:31:46.096Z,54.60
2024-03-02T21:33:49.738Z,54.80
2024-03-02T21:35:55.992Z,54.90
2024-03-02T21:38:04.084Z,54.90
2024-03-02T21:40:12.884Z,54.90
2024-03-02T21:42:26.390Z,55.00
2024-03-02T21:44:32.765Z,55.10
2024-03-02T21:46:43.832Z,55.10
2024-03-02T21:48:53.244Z,55.60
2024-03-02T21:51:03.450Z,55.20
2024-03-02T21:53:10.499Z,55.30
2024-03-02T21:55:18.789Z,55.40
2024-03-02T21:57:26.264Z,55.60
2024-03-02T21:59:30.106Z,55.70
2024-03-02T22:01:37.573Z,55.80
2024-03-02T22:03:46.876Z,55.80
2024-03-02T22:05:54.934Z,56.00
2024-03-02T22:08:07.253Z,56.20
2024-03-02T22:10:13.951Z,56.30
2024-03-02T22:12:20.731Z,56.50
2024-03-02T22:14:25.080Z,56.60
2024-03-02T22:16:30.407Z,56.70
2024-03-02T22:18:34.360Z,56.70
2024-03-02T22:20:39.699Z,56.80
2024-03-02T22:22:48.082Z,57.10
2024-03-02T22:24:56.155Z,57.10
2024-03-02T22:27:01.890Z,57.30
2024-03-02T22:29:08.203Z,57.30
2024-03-02T22:31:16.806Z,57.30
2024-03-02T22:33:20.668Z,57.40
2024-03-02T22:35:27.263Z,57.50
2024-03-02T22:37:30.732Z,57.60
2024-03-02T22:39:35.022Z,57.70
2024-03-02T22:41:44.638Z,57.70
2024-03-02T22:43:50.796Z,57.80
2024-03-02T22:46:02.316Z,57.90
2024-03-02T22:48:08.196Z,57.90
2024-03-02T22:50:14.609Z,58.00
2024-03-02T22:52:19.675Z,58.00
2024-03-02T22:54:25.704Z,58.10
2024-03-02T22:56:30.083Z,58.10
2024-03-02T22:58:33.504Z,58.10
2024-03-02T23:00:49.317Z,58.20
2024-03-02T23:02:59.138Z,58.20
2024-03-02T23:05:06.110Z,58.30
2024-03-02T23:07:11.276Z,58.40
2024-03-02T23:09:17.984Z,58.50
2024-03-02T23:11:21.922Z,58.50
2024-03-02T23:13:28.192Z,58.50
2024-03-02T23:15:34.321Z,58.60
2024-03-02T23:17:37.673Z,58.60
2024-03-02T23:19:44.719Z,58.60
2024-03-02T23:21:49.352Z,58.70
2024-03-02T23:23:55.714Z,58.70
2024-03-02T23:26:01.383Z,59.70
2024-03-02T23:28:06.159Z,58.90
2024-03-02T23:30:15.275Z,59.00
2024-03-02T23:32:39.590Z,59.00
2024-03-02T23:34:47.012Z,59.10
2024-03-02T23:36:50.806Z,59.10
2024-03-02T23:39:02.607Z,59.20
2024-03-02T23:41:12.635Z,59.30
2024-03-02T23:43:21.050Z,59.20
2024-03-02T23:45:29.793Z,59.30
2024-03-02T23:47:33.148Z,59.30
2024-03-02T23:49:37.159Z,59.30
2024-03-02T23:51:43.133Z,59.40
2024-03-02T23:53:47.389Z,59.30
2024-03-02T23:55:53.304Z,59.40
2024-03-02T23:57:56.948Z,59.00
